ADDS METAR Data INFO
IDs: Format: Raw Decoded Include TAF

Data at: 1517 UTC 21 Feb 2018

KHEI 201453Z AUTO 30007KT 10SM FEW026 M24/M26 A3009 RMK AO2 SLP266 60000 T12391261 51012 $
KHEI 211353Z AUTO 19006KT 10SM CLR M24/M28 A3031 RMK AO2 SLP349 T12391283 $
KHEI 211253Z AUTO 29003KT 10SM CLR M27/M29 A3030 RMK AO2 SLP344 T12671289 $
KHEI 201453Z AUTO 30007KT 10SM FEW026 M24/M26 A3009 RMK AO2 SLP266 60000 T12391261 51012 $
KHEI 201353Z AUTO 30008KT 10SM SCT060 OVC095 M21/M24 A3008 RMK AO2 SLP256 T12111239 $
KHEI 201253Z AUTO 30007KT 9SM FEW044 OVC100 M19/M22 A3007 RMK AO2 SNE45 SLP253 P0000 T11941222 $
KHEI 201153Z AUTO 29008KT 4SM -SN OVC041 M18/M21 A3005 RMK AO2 SLP245 P0000 60000 T11831211 11178 21183 51012 $
KHEI 201053Z AUTO 31009KT 3SM -SN OVC034 M18/M21 A3004 RMK AO2 SLP239 P0000 T11781206 $
KHEI 200953Z AUTO 31007KT 3SM -SN OVC034 M18/M21 A3004 RMK AO2 SLP241 P0000 T11781206 $
KHEI 200853Z AUTO 33008KT 5SM -SN OVC050 M18/M21 A3001 RMK AO2 SNE07B45 PRESFR SLP231 P0000 60000 T11781206 56017 $
KHEI 200753Z AUTO 32007KT 3SM -SN OVC095 M18/M21 A3004 RMK AO2 SLP238 P0000 T11781206 $
KHEI 200653Z AUTO 35008KT 4SM -SN OVC032 M18/M21 A3003 RMK AO2 PRESFR SLP238 P0000 T11781206 411561183 $
KHEI 200553Z AUTO 33006KT 4SM -SN BKN075 OVC090 M18/M21 A3007 RMK AO2 SNB32 SLP250 P0000 60000 T11781206 11172 21178 53006 $
KHEI 200453Z AUTO 35006KT 9SM OVC095 M18/M21 A3005 RMK AO2 SLP245 T11781206 $
KHEI 200401Z AUTO 02006KT 4SM HZ BKN031 OVC095 M18/M21 A3005 RMK AO2 T11781206 $
KHEI 200353Z AUTO 02006KT 4SM HZ OVC029 M18/M21 A3005 RMK AO2 SNE38 SLP243 P0000 T11781206 $
KHEI 200351Z AUTO 01006KT 3SM HZ OVC029 M18/M21 A3005 RMK AO2 SNE38 P0000 $